Time;durP1;ratioP1;P1;durP2;ratioP2;P2;SDS_P1;SDS_P2;PMS_P1;PMS_P2;Temp;Humidity;BMP_temperature;BMP_pressure;BME280_temperature;BME280_humidity;BME280_pressure;Samples;Min_cycle;Max_cycle;Signal;HPM_P1;HPM_P2
2023/01/02 00:00:14;;;;;;;8.9;5.6;;;;;;;5.38;89.29395;943.0402;;;;
2023/01/02 00:02:41;;;;;;;6.9;4.8;;;;;;;5.33;89.45215;942.8931;;;;
2023/01/02 00:05:12;;;;;;;8.4;5.9;;;;;;;5.43;89.66699;942.912;;;;
2023/01/02 00:10:23;;;;;;;9.2;5.3;;;;;;;5.51;88.38379;942.9109;;;;
2023/01/02 00:13:03;;;;;;;8;4.5;;;;;;;5.34;89.05762;942.9587;;;;
2023/01/02 00:15:42;;;;;;;6.6;4.2;;;;;;;5.21;90.56445;942.9636;;;;
2023/01/02 00:18:16;;;;;;;7.3;4.9;;;;;;;5.17;90.33203;942.9594;;;;
2023/01/02 00:21:03;;;;;;;4.7;3.4;;;;;;;5.21;90.51953;942.8926;;;;
2023/01/02 00:23:34;;;;;;;4.2;2.9;;;;;;;5.17;91.01953;942.7606;;;;
2023/01/02 00:25:59;;;;;;;2.7;2.1;;;;;;;5.56;89.47852;942.7816;;;;
2023/01/02 00:28:27;;;;;;;4;2.2;;;;;;;5.85;88.0918;942.6563;;;;
2023/01/02 00:31:06;;;;;;;4.5;2.4;;;;;;;5.96;87.20996;942.6389;;;;
2023/01/02 00:33:32;;;;;;;3.3;2.2;;;;;;;6.04;86.94434;942.6094;;;;
2023/01/02 00:35:57;;;;;;;3.6;2.7;;;;;;;6.1;86.12109;942.5955;;;;
2023/01/02 00:38:22;;;;;;;5.3;4.2;;;;;;;6.01;86.47363;942.5322;;;;
2023/01/02 00:40:51;;;;;;;9.4;5.8;;;;;;;5.93;86.69629;942.6118;;;;
2023/01/02 00:43:17;;;;;;;4.2;2.9;;;;;;;5.98;85.99414;942.6016;;;;
2023/01/02 00:45:42;;;;;;;5.7;3.3;;;;;;;5.96;85.9248;942.4904;;;;
2023/01/02 00:48:07;;;;;;;3.7;2.1;;;;;;;6.01;86.01074;942.5574;;;;
2023/01/02 00:50:33;;;;;;;3.1;2.1;;;;;;;5.86;86.89844;942.6431;;;;
2023/01/02 00:52:58;;;;;;;4.4;2.4;;;;;;;5.62;87.98926;942.6299;;;;
2023/01/02 00:55:27;;;;;;;3.9;2.6;;;;;;;5.61;88.28223;942.6431;;;;
2023/01/02 00:57:55;;;;;;;3.7;2.7;;;;;;;5.53;88.43262;942.5608;;;;
2023/01/02 01:00:20;;;;;;;4.3;3.1;;;;;;;5.53;88.47852;942.605;;;;
2023/01/02 01:02:49;;;;;;;3.4;2.2;;;;;;;5.6;88.60449;942.5703;;;;
2023/01/02 01:05:18;;;;;;;3;2.3;;;;;;;5.52;88.37305;942.5058;;;;
2023/01/02 01:07:49;;;;;;;2.8;2;;;;;;;5.36;89.07422;942.4441;;;;
2023/01/02 01:10:14;;;;;;;2.2;1.9;;;;;;;5.34;89.94824;942.5182;;;;
2023/01/02 01:12:45;;;;;;;1.9;1.5;;;;;;;5.51;89.83984;942.4914;;;;
2023/01/02 01:15:13;;;;;;;2.8;2.1;;;;;;;5.52;88.90332;942.358;;;;
2023/01/02 01:17:39;;;;;;;2.6;1.9;;;;;;;5.55;88.9668;942.5569;;;;
2023/01/02 01:20:08;;;;;;;2.9;2;;;;;;;5.48;89.41504;942.5662;;;;
2023/01/02 01:22:33;;;;;;;3.8;2.4;;;;;;;5.46;89.46973;942.4597;;;;
2023/01/02 01:25:01;;;;;;;2.9;2;;;;;;;5.55;89.00098;942.4913;;;;
2023/01/02 01:27:26;;;;;;;2.7;2.1;;;;;;;5.55;89.11426;942.4486;;;;
2023/01/02 01:29:56;;;;;;;3.9;1.7;;;;;;;5.54;89.04395;942.3352;;;;
2023/01/02 01:32:29;;;;;;;2;1.5;;;;;;;5.62;89.11816;942.4853;;;;
2023/01/02 01:35:00;;;;;;;2.4;1.8;;;;;;;5.53;88.80566;942.4393;;;;
2023/01/02 01:37:34;;;;;;;2.6;1.8;;;;;;;5.42;89.1084;942.4725;;;;
2023/01/02 01:39:59;;;;;;;1.8;1.4;;;;;;;5.52;89.97559;942.4625;;;;
2023/01/02 01:42:32;;;;;;;1.6;1.5;;;;;;;5.49;89.49609;942.4512;;;;
2023/01/02 01:44:57;;;;;;;1.6;1.4;;;;;;;5.49;89.32617;942.3289;;;;
2023/01/02 01:47:28;;;;;;;1.9;1.6;;;;;;;5.42;89.60645;942.3422;;;;
2023/01/02 01:49:53;;;;;;;3.1;1.7;;;;;;;5.37;89.9209;942.411;;;;
2023/01/02 01:52:19;;;;;;;2.1;1.7;;;;;;;5.31;89.4707;942.4013;;;;
2023/01/02 01:54:44;;;;;;;2;1.7;;;;;;;5.15;90.125;942.4409;;;;
2023/01/02 01:57:09;;;;;;;3.6;2;;;;;;;5.03;91.10352;942.4446;;;;
2023/01/02 01:59:34;;;;;;;6.9;4.1;;;;;;;5.1;91.04883;942.4058;;;;
2023/01/02 02:02:03;;;;;;;6.1;3.6;;;;;;;5.14;90.33691;942.308;;;;
2023/01/02 02:04:28;;;;;;;6.5;3.8;;;;;;;5.18;90.04004;942.3803;;;;
2023/01/02 02:06:56;;;;;;;5.6;3.4;;;;;;;5.18;90.01953;942.3561;;;;
2023/01/02 02:09:22;;;;;;;7.1;3.7;;;;;;;5.19;90.23633;942.3675;;;;
2023/01/02 02:11:47;;;;;;;5;3.2;;;;;;;5.21;90.27148;942.2704;;;;
2023/01/02 02:14:15;;;;;;;5.6;3.3;;;;;;;5.36;89.72852;942.2285;;;;
2023/01/02 02:16:41;;;;;;;4.6;2.9;;;;;;;5.37;89.62695;942.3289;;;;
2023/01/02 02:19:06;;;;;;;4.3;3.2;;;;;;;5.43;89.10059;942.2754;;;;
2023/01/02 02:21:31;;;;;;;5.4;2.9;;;;;;;5.47;88.72656;942.3717;;;;
2023/01/02 02:23:57;;;;;;;4.3;3;;;;;;;5.32;88.90918;942.3582;;;;
2023/01/02 02:26:22;;;;;;;4.5;2.4;;;;;;;5.26;89.24512;942.2802;;;;
2023/01/02 02:28:47;;;;;;;2.9;2.2;;;;;;;5.26;89.45996;942.2825;;;;
2023/01/02 02:31:16;;;;;;;3.7;2.4;;;;;;;5.19;89.41309;942.1655;;;;
2023/01/02 02:34:37;;;;;;;2.6;2.2;;;;;;;5.27;89.2041;942.1842;;;;
2023/01/02 02:37:02;;;;;;;2.9;2;;;;;;;5.2;89.08789;942.1317;;;;
2023/01/02 02:39:28;;;;;;;2.2;1.8;;;;;;;5.28;88.91309;942.1609;;;;
2023/01/02 02:41:58;;;;;;;2.2;1.6;;;;;;;5.2;90.10059;942.1063;;;;
2023/01/02 02:44:27;;;;;;;1.9;1.4;;;;;;;5.14;90.32422;942.0798;;;;
2023/01/02 02:50:44;;;;;;;1.5;1.2;;;;;;;5.15;90.69824;942.0524;;;;
2023/01/02 02:53:10;;;;;;;1.9;1.6;;;;;;;5.19;90.01953;942.1022;;;;
2023/01/02 02:55:34;;;;;;;2.3;1.5;;;;;;;5.2;89.82031;942.045;;;;
2023/01/02 02:57:59;;;;;;;2.5;1.6;;;;;;;5.25;89.64941;941.9894;;;;
2023/01/02 03:00:25;;;;;;;2;1.4;;;;;;;5.29;89.19434;942.0452;;;;
2023/01/02 03:02:56;;;;;;;1.7;1.3;;;;;;;5.28;88.99121;942.0497;;;;
2023/01/02 03:05:23;;;;;;;2.3;1.5;;;;;;;5.27;88.61426;942.0072;;;;
2023/01/02 03:07:51;;;;;;;1.6;1.2;;;;;;;5.41;87.61914;941.9241;;;;
2023/01/02 03:10:19;;;;;;;2.2;1.5;;;;;;;5.24;88.27148;942.0087;;;;
2023/01/02 03:12:45;;;;;;;1.6;1.4;;;;;;;5.22;88.30176;942.0545;;;;
2023/01/02 03:15:10;;;;;;;1.9;1.1;;;;;;;5.08;88.9707;942.0793;;;;
2023/01/02 03:17:40;;;;;;;2;1.3;;;;;;;5.07;89.64551;942.0703;;;;
2023/01/02 03:20:05;;;;;;;1.5;1.1;;;;;;;5.14;89.16406;941.997;;;;
2023/01/02 03:22:31;;;;;;;1.4;1.3;;;;;;;5.08;89.55762;941.9852;;;;
2023/01/02 03:24:56;;;;;;;3.8;1.4;;;;;;;5.14;89.51367;941.9907;;;;
2023/01/02 03:27:24;;;;;;;4.8;1.9;;;;;;;5.07;89.62305;942.0001;;;;
2023/01/02 03:29:49;;;;;;;2.9;1.6;;;;;;;5;89.41797;942.0313;;;;
2023/01/02 03:32:14;;;;;;;2.1;1.5;;;;;;;4.93;89.43457;941.9685;;;;
2023/01/02 03:34:39;;;;;;;1.3;1.2;;;;;;;5.07;89.04785;941.9763;;;;
2023/01/02 03:37:04;;;;;;;1;0.9;;;;;;;4.95;89.74512;941.9299;;;;
2023/01/02 03:39:30;;;;;;;0.9;0.9;;;;;;;5.04;89.59277;941.8709;;;;
2023/01/02 03:41:55;;;;;;;1.3;1.1;;;;;;;5.01;89.11328;941.9188;;;;
2023/01/02 03:44:20;;;;;;;1.4;0.9;;;;;;;5.24;88.39355;941.8635;;;;
2023/01/02 03:46:45;;;;;;;1.5;1;;;;;;;5.46;86.72559;941.8911;;;;
2023/01/02 03:49:10;;;;;;;0.9;0.8;;;;;;;5.61;85.9873;941.9927;;;;
2023/01/02 03:51:35;;;;;;;1.1;0.8;;;;;;;5.88;84.67676;941.8797;;;;
2023/01/02 03:54:04;;;;;;;0.6;0.6;;;;;;;6.12;83.3125;941.9323;;;;
2023/01/02 03:56:29;;;;;;;0.7;0.7;;;;;;;6.08;83.5752;941.8203;;;;
2023/01/02 03:58:56;;;;;;;1.5;0.9;;;;;;;6.06;83.44531;941.8069;;;;
2023/01/02 04:02:43;;;;;;;2.2;1.3;;;;;;;5.94;83.46777;941.7396;;;;
2023/01/02 04:05:10;;;;;;;1.5;1.3;;;;;;;5.64;84.82031;941.8391;;;;
2023/01/02 04:07:36;;;;;;;2.8;2;;;;;;;5.54;85.82813;941.8313;;;;
2023/01/02 04:10:04;;;;;;;3;2.1;;;;;;;5.2;87.73242;941.8427;;;;
2023/01/02 04:12:29;;;;;;;2.6;1.9;;;;;;;5.19;87.63086;941.9066;;;;
2023/01/02 04:14:54;;;;;;;2.1;1.7;;;;;;;5.19;87.31348;941.8834;;;;
2023/01/02 04:17:22;;;;;;;2.4;1.5;;;;;;;5.27;86.95996;941.8914;;;;
2023/01/02 04:19:47;;;;;;;1.5;1.3;;;;;;;5.31;86.78613;941.8809;;;;
2023/01/02 04:22:12;;;;;;;1.8;1.7;;;;;;;5.35;86.33301;941.9322;;;;
2023/01/02 04:24:37;;;;;;;2.2;1.5;;;;;;;5.37;85.91797;941.9604;;;;
2023/01/02 04:27:03;;;;;;;1.2;1.1;;;;;;;5.19;86.97461;942.0476;;;;
2023/01/02 04:32:48;;;;;;;1.9;1.2;;;;;;;5.13;87.86426;941.9807;;;;
2023/01/02 04:35:15;;;;;;;2;1.1;;;;;;;5.32;87.25977;941.9222;;;;
2023/01/02 04:37:40;;;;;;;1.8;0.9;;;;;;;5.37;86.40234;941.9517;;;;
2023/01/02 04:40:05;;;;;;;1.2;1;;;;;;;5.43;85.82715;941.9033;;;;
2023/01/02 04:42:36;;;;;;;1.2;0.9;;;;;;;5.73;84.4209;941.8792;;;;
2023/01/02 04:45:01;;;;;;;1;0.9;;;;;;;5.85;83.43848;941.7269;;;;
2023/01/02 04:47:29;;;;;;;1.7;1.3;;;;;;;5.97;82.99805;941.889;;;;
2023/01/02 04:49:54;;;;;;;1.1;0.8;;;;;;;6.08;82.06055;941.9161;;;;
2023/01/02 04:52:19;;;;;;;1.1;1;;;;;;;6.15;81.29492;941.8953;;;;
2023/01/02 04:54:44;;;;;;;1.1;1;;;;;;;6.29;80.95898;941.899;;;;
2023/01/02 04:57:12;;;;;;;0.8;0.8;;;;;;;6.08;81.2793;941.8217;;;;
2023/01/02 04:59:37;;;;;;;0.9;0.9;;;;;;;6.13;81.13184;941.878;;;;
2023/01/02 05:02:02;;;;;;;1.5;1.2;;;;;;;5.88;82.40625;941.8789;;;;
2023/01/02 05:04:27;;;;;;;1.1;0.7;;;;;;;5.7;83.51172;941.9161;;;;
2023/01/02 05:06:56;;;;;;;1;0.9;;;;;;;5.51;84.69434;941.9528;;;;
2023/01/02 05:09:21;;;;;;;1;0.8;;;;;;;5.65;84.69824;941.9832;;;;
2023/01/02 05:11:48;;;;;;;1.2;0.9;;;;;;;5.67;84.14844;942.0469;;;;
2023/01/02 05:14:13;;;;;;;1.4;1;;;;;;;5.56;84.63477;941.9543;;;;
2023/01/02 05:16:38;;;;;;;1.3;1.1;;;;;;;5.52;84.97754;942.0694;;;;
2023/01/02 05:19:07;;;;;;;1.3;1.2;;;;;;;5.48;84.92578;942.0087;;;;
2023/01/02 05:23:57;;;;;;;1.4;0.9;;;;;;;5.84;82.40918;942.1011;;;;
2023/01/02 05:26:26;;;;;;;0.8;0.6;;;;;;;6.45;78.93066;942.0221;;;;
2023/01/02 05:28:51;;;;;;;1.5;1.4;;;;;;;6.17;79.99805;942.0422;;;;
2023/01/02 05:31:20;;;;;;;1.7;1.4;;;;;;;5.73;82.83984;942.09;;;;
2023/01/02 05:33:46;;;;;;;1.4;1.3;;;;;;;5.52;83.9375;942.1039;;;;
2023/01/02 05:36:15;;;;;;;2;1.5;;;;;;;5.43;84.58594;942.085;;;;
2023/01/02 05:38:46;;;;;;;2;1.4;;;;;;;5.35;84.59375;942.0195;;;;
2023/01/02 05:41:17;;;;;;;2.1;1.5;;;;;;;5.23;85.32617;942.0667;;;;
2023/01/02 05:43:46;;;;;;;3.7;2.1;;;;;;;5.02;86.47949;942.0709;;;;
2023/01/02 05:46:11;;;;;;;1.9;1.6;;;;;;;5.06;87.18457;942.05;;;;
2023/01/02 05:48:38;;;;;;;1.4;1.1;;;;;;;5.38;85.91895;942.0545;;;;
2023/01/02 05:51:03;;;;;;;1.4;1.1;;;;;;;5.51;84.60352;942.0198;;;;
2023/01/02 05:53:29;;;;;;;2.1;1.5;;;;;;;5.53;84.22363;942.0269;;;;
2023/01/02 05:55:54;;;;;;;3.2;2.3;;;;;;;5.38;84.31738;942.045;;;;
2023/01/02 05:58:24;;;;;;;4.1;2.8;;;;;;;5.29;84.68262;942.019;;;;
2023/01/02 06:00:52;;;;;;;4.4;2.9;;;;;;;5.2;85.17285;942.0906;;;;
2023/01/02 06:03:18;;;;;;;2.8;2.4;;;;;;;5.08;85.66797;942.1141;;;;
2023/01/02 06:05:43;;;;;;;2.2;1.7;;;;;;;5.1;86.23535;942.0862;;;;
2023/01/02 06:08:08;;;;;;;3.5;2.1;;;;;;;5.29;85.21289;942.0759;;;;
2023/01/02 06:10:36;;;;;;;3.7;2.6;;;;;;;5.44;84.20605;942.0232;;;;
2023/01/02 06:13:04;;;;;;;2.2;1.5;;;;;;;5.41;84.40332;942.0639;;;;
2023/01/02 06:15:37;;;;;;;1.8;1.5;;;;;;;5.35;84.70703;942.0276;;;;
2023/01/02 06:18:04;;;;;;;1.5;1.4;;;;;;;5.54;83.9541;942.0558;;;;
2023/01/02 06:20:30;;;;;;;1.5;1.2;;;;;;;5.57;83.55371;941.9849;;;;
2023/01/02 06:22:56;;;;;;;1.6;1.3;;;;;;;5.8;82.46875;942.022;;;;
2023/01/02 06:25:22;;;;;;;1.2;1.1;;;;;;;5.94;81.24414;941.9633;;;;
2023/01/02 06:27:47;;;;;;;1.6;1.5;;;;;;;6.14;80.27637;941.9709;;;;
2023/01/02 06:30:16;;;;;;;2.5;1.3;;;;;;;6.11;80.14453;942.0269;;;;
2023/01/02 06:32:41;;;;;;;1.9;1.2;;;;;;;6.41;79.58984;942.0527;;;;
2023/01/02 06:35:08;;;;;;;3.9;1.7;;;;;;;6.93;75.7002;941.9625;;;;
2023/01/02 06:37:33;;;;;;;1.4;1.2;;;;;;;6.9;75.76465;941.9548;;;;
2023/01/02 06:40:02;;;;;;;1.5;1;;;;;;;6.61;76.9248;941.9736;;;;
2023/01/02 06:42:27;;;;;;;1.4;1.2;;;;;;;6.65;76.33008;941.8939;;;;
2023/01/02 06:44:56;;;;;;;1.7;1.2;;;;;;;6.88;75.23926;941.8994;;;;
2023/01/02 06:47:20;;;;;;;2.7;1.6;;;;;;;6.9;76.4668;941.9476;;;;
2023/01/02 06:49:47;;;;;;;4.7;2.6;;;;;;;7.01;75.62695;941.9709;;;;
2023/01/02 06:52:12;;;;;;;3.8;2.7;;;;;;;7.04;74.99609;941.9495;;;;
2023/01/02 06:54:40;;;;;;;4.7;3.1;;;;;;;6.86;76.50586;942.0359;;;;
2023/01/02 06:57:09;;;;;;;2.8;1.6;;;;;;;6.64;76.91602;941.9807;;;;
2023/01/02 06:59:34;;;;;;;2.9;1.9;;;;;;;6.38;78.0918;942.1163;;;;
2023/01/02 07:02:02;;;;;;;4.8;3;;;;;;;6.03;79.60938;942.0898;;;;
2023/01/02 07:04:27;;;;;;;4.9;2.9;;;;;;;5.94;80.2373;942.126;;;;
2023/01/02 07:06:53;;;;;;;3.5;2.5;;;;;;;5.79;80.32324;942.1521;;;;
2023/01/02 07:09:18;;;;;;;4.1;2.2;;;;;;;5.67;81.37109;942.1703;;;;
2023/01/02 07:11:48;;;;;;;1.6;1.3;;;;;;;5.52;82.25781;942.1736;;;;
2023/01/02 07:18:06;;;;;;;1.4;1.2;;;;;;;5.6;82.0459;942.1469;;;;
2023/01/02 07:20:34;;;;;;;2.5;1.3;;;;;;;5.7;81.37793;942.1555;;;;
2023/01/02 07:22:59;;;;;;;1;0.9;;;;;;;5.86;80.82227;942.1414;;;;
2023/01/02 07:25:26;;;;;;;1.4;1.1;;;;;;;6.07;79.25684;942.1133;;;;
2023/01/02 07:27:53;;;;;;;1.5;1.1;;;;;;;6.53;76.79688;942.1369;;;;
2023/01/02 07:30:26;;;;;;;1.8;1.5;;;;;;;6.68;75.37598;942.0731;;;;
2023/01/02 07:37:54;;;;;;;6.5;3.6;;;;;;;6.51;76.66895;942.1555;;;;
2023/01/02 07:40:19;;;;;;;8.7;4.7;;;;;;;6.11;78.65332;942.2536;;;;
2023/01/02 07:42:48;;;;;;;9.7;6.1;;;;;;;5.98;79.73535;942.3794;;;;
2023/01/02 07:45:14;;;;;;;8.9;5.5;;;;;;;5.81;80.55176;942.3206;;;;
2023/01/02 07:47:42;;;;;;;7.1;4.8;;;;;;;5.76;81.28711;942.3613;;;;
2023/01/02 07:50:16;;;;;;;9.2;5.4;;;;;;;5.72;81.03223;942.368;;;;
2023/01/02 07:55:17;;;;;;;6.5;4;;;;;;;5.53;82.49707;942.368;;;;
2023/01/02 07:57:42;;;;;;;4.5;3;;;;;;;5.56;82.7959;942.3714;;;;
2023/01/02 08:00:08;;;;;;;2.6;2.3;;;;;;;5.73;81.90332;942.4149;;;;
2023/01/02 08:02:34;;;;;;;3.9;2.8;;;;;;;5.89;81.04297;942.3684;;;;
2023/01/02 08:05:02;;;;;;;2.1;1.9;;;;;;;5.97;80.48047;942.421;;;;
2023/01/02 08:07:27;;;;;;;3.5;2;;;;;;;6.18;79.1748;942.2885;;;;
2023/01/02 08:09:56;;;;;;;2.3;1.9;;;;;;;6.36;78.60742;942.356;;;;
2023/01/02 08:12:25;;;;;;;2.2;1.9;;;;;;;6.5;78.71484;942.3758;;;;
2023/01/02 08:14:50;;;;;;;2.7;1.9;;;;;;;7.14;75.30957;942.3942;;;;
2023/01/02 08:17:20;;;;;;;3.4;2.5;;;;;;;8.38;70.10742;942.4141;;;;
2023/01/02 08:19:45;;;;;;;3.6;2.9;;;;;;;9.38;66.1582;942.4138;;;;
2023/01/02 08:22:12;;;;;;;5.4;3.7;;;;;;;10.18;62.93945;942.3969;;;;
2023/01/02 08:24:37;;;;;;;3.1;2.5;;;;;;;10.89;59.24902;942.3323;;;;
2023/01/02 08:27:07;;;;;;;8.4;6.2;;;;;;;11.85;57.00977;942.3169;;;;
2023/01/02 08:29:32;;;;;;;4.5;3.1;;;;;;;12.13;55.59082;942.4263;;;;
2023/01/02 08:31:58;;;;;;;7;4.8;;;;;;;11.63;57.54102;942.3808;;;;
2023/01/02 08:34:23;;;;;;;3.6;2.1;;;;;;;12.1;54.31445;942.3628;;;;
2023/01/02 08:36:49;;;;;;;5.4;4.2;;;;;;;13.02;53.46484;942.3695;;;;
2023/01/02 08:39:19;;;;;;;4.2;3.1;;;;;;;13.12;51.57227;942.3022;;;;
2023/01/02 08:41:44;;;;;;;4.5;3.5;;;;;;;13.18;51.63574;942.2941;;;;
2023/01/02 08:44:11;;;;;;;4.6;3.3;;;;;;;13.6;51.01855;942.2848;;;;
2023/01/02 08:46:36;;;;;;;3.7;3;;;;;;;12.53;52.14355;942.3155;;;;
2023/01/02 08:49:02;;;;;;;1.7;1.4;;;;;;;11.64;54.22266;942.2811;;;;
2023/01/02 08:51:27;;;;;;;3.7;2.7;;;;;;;11.48;56.11328;942.2686;;;;
2023/01/02 08:53:55;;;;;;;6.1;3.9;;;;;;;10.94;58.47852;942.286;;;;
2023/01/02 08:56:20;;;;;;;5.6;3.5;;;;;;;10.51;60.09766;942.3196;;;;
2023/01/02 08:58:47;;;;;;;5.2;3.5;;;;;;;10.18;60.99902;942.3347;;;;
2023/01/02 09:01:12;;;;;;;5.6;3.9;;;;;;;10.03;61.81055;942.3719;;;;
2023/01/02 09:03:38;;;;;;;7.6;4.3;;;;;;;9.87;63.29395;942.2589;;;;
2023/01/02 09:06:03;;;;;;;6.2;4.4;;;;;;;9.74;64.24219;942.3613;;;;
2023/01/02 09:08:28;;;;;;;4.2;2.5;;;;;;;9.64;63.46387;942.3641;;;;
2023/01/02 09:10:57;;;;;;;2.7;1.9;;;;;;;9.68;63.07227;942.2957;;;;
2023/01/02 09:13:23;;;;;;;1.7;1.2;;;;;;;9.7;63.2002;942.3056;;;;
2023/01/02 09:15:53;;;;;;;6;2;;;;;;;9.9;61.12988;942.3301;;;;
2023/01/02 09:18:20;;;;;;;2.3;1.1;;;;;;;9.99;61.49902;942.4003;;;;
2023/01/02 09:20:45;;;;;;;1.9;1.5;;;;;;;10.06;61.06152;942.3628;;;;
2023/01/02 09:23:12;;;;;;;1.8;1.4;;;;;;;10.21;60.04492;942.3334;;;;
2023/01/02 09:25:37;;;;;;;1.6;1.5;;;;;;;10.27;60.04102;942.3161;;;;
2023/01/02 09:28:04;;;;;;;3.8;2.8;;;;;;;10.32;62.51563;942.372;;;;
2023/01/02 09:30:31;;;;;;;2.5;2;;;;;;;10.24;62.22852;942.3563;;;;
2023/01/02 09:33:00;;;;;;;1.7;1.3;;;;;;;10.28;60.86523;942.2933;;;;
2023/01/02 09:35:28;;;;;;;2.8;1.9;;;;;;;10.35;61.54883;942.2823;;;;
2023/01/02 09:37:53;;;;;;;2.4;2.1;;;;;;;10.5;61.04492;942.2421;;;;
2023/01/02 09:40:22;;;;;;;2.3;1.9;;;;;;;10.58;61.27246;942.2051;;;;
2023/01/02 09:42:51;;;;;;;4.2;2.6;;;;;;;10.67;62.02832;942.175;;;;
2023/01/02 09:45:26;;;;;;;4.5;2.3;;;;;;;10.82;60.20898;942.1528;;;;
2023/01/02 09:47:55;;;;;;;4.1;2.7;;;;;;;10.93;60.01953;942.2102;;;;
2023/01/02 09:50:25;;;;;;;4.8;2.7;;;;;;;11.05;58.43555;942.1692;;;;
2023/01/02 09:52:51;;;;;;;8.4;3.2;;;;;;;11.16;58.7832;942.1189;;;;
2023/01/02 09:55:23;;;;;;;9.4;5.5;;;;;;;11.19;60.06641;942.116;;;;
2023/01/02 09:57:50;;;;;;;9.2;5.1;;;;;;;11.17;59.33203;942.0528;;;;
2023/01/02 10:00:16;;;;;;;10.3;4.4;;;;;;;11.22;59.46582;942.0394;;;;
2023/01/02 10:02:48;;;;;;;7.1;3.2;;;;;;;11.32;59.14746;942.0064;;;;
2023/01/02 10:05:20;;;;;;;4.9;3.2;;;;;;;11.6;57.56055;941.8744;;;;
2023/01/02 10:07:45;;;;;;;9.7;3.2;;;;;;;11.65;56.86816;941.8951;;;;
2023/01/02 10:10:10;;;;;;;6.2;2.4;;;;;;;11.73;57.06348;941.8699;;;;
2023/01/02 10:12:39;;;;;;;7.1;2.2;;;;;;;11.86;57.01074;941.8837;;;;
2023/01/02 10:15:07;;;;;;;6.5;2.5;;;;;;;11.99;55.81348;941.8323;;;;
2023/01/02 10:17:33;;;;;;;7;2.3;;;;;;;12.18;54.86426;941.7753;;;;
2023/01/02 10:19:58;;;;;;;2.7;1.4;;;;;;;12.39;54.77637;941.6919;;;;
2023/01/02 10:22:28;;;;;;;6.6;2;;;;;;;12.48;55.14355;941.6209;;;;
2023/01/02 10:25:00;;;;;;;7.6;1.6;;;;;;;12.66;54.46484;941.5809;;;;
2023/01/02 10:27:26;;;;;;;19.4;3.4;;;;;;;12.9;57.33105;941.6563;;;;
2023/01/02 10:29:51;;;;;;;6.3;2.2;;;;;;;13.1;51.61523;941.6273;;;;
2023/01/02 10:32:23;;;;;;;7.3;3;;;;;;;13.26;52.15137;941.5551;;;;
2023/01/02 10:34:52;;;;;;;4.1;1.7;;;;;;;13.44;51.59766;941.4817;;;;
2023/01/02 10:37:18;;;;;;;2.6;1.5;;;;;;;13.63;50.67871;941.4794;;;;
2023/01/02 10:39:49;;;;;;;4.7;1.7;;;;;;;13.87;50.18652;941.3466;;;;
2023/01/02 10:42:14;;;;;;;2.5;1.2;;;;;;;14.08;50.12012;941.3135;;;;
2023/01/02 10:44:43;;;;;;;1.6;0.8;;;;;;;14.14;49.55176;941.199;;;;
2023/01/02 10:47:08;;;;;;;3.7;1.5;;;;;;;14.32;49.84766;941.3716;;;;
2023/01/02 10:49:36;;;;;;;2.9;0.8;;;;;;;14.66;48.41113;941.2897;;;;
2023/01/02 10:52:01;;;;;;;0.9;0.7;;;;;;;14.87;47.00488;941.1356;;;;
2023/01/02 10:54:26;;;;;;;4;1;;;;;;;15.09;47.15527;941.0992;;;;
2023/01/02 10:56:56;;;;;;;1.6;1.1;;;;;;;15.29;46.68066;941.057;;;;
2023/01/02 10:59:19;;;;;;;9.7;1.7;;;;;;;15.53;46.07031;941.1091;;;;
2023/01/02 11:01:48;;;;;;;10.5;2.5;;;;;;;15.63;45.91895;941.0402;;;;
2023/01/02 11:04:15;;;;;;;6.5;2.1;;;;;;;15.85;45.74609;941.0375;;;;
2023/01/02 11:06:40;;;;;;;7.1;2.6;;;;;;;16;44.27051;940.9771;;;;
2023/01/02 11:09:06;;;;;;;7.4;2.6;;;;;;;16.19;44.46289;940.8795;;;;
2023/01/02 11:11:30;;;;;;;6.4;1.9;;;;;;;16.48;43.85547;940.8536;;;;
2023/01/02 11:13:57;;;;;;;3.9;2;;;;;;;16.5;43.7998;940.8526;;;;
2023/01/02 11:16:22;;;;;;;4;2;;;;;;;16.54;42.95898;940.8289;;;;
2023/01/02 11:18:50;;;;;;;3.5;1.6;;;;;;;16.59;42.07227;940.9023;;;;
2023/01/02 11:21:20;;;;;;;5.6;1.7;;;;;;;16.81;42.71875;940.764;;;;
2023/01/02 11:23:46;;;;;;;4.4;1.4;;;;;;;16.9;41.89355;940.7497;;;;
2023/01/02 11:26:10;;;;;;;4.6;1.5;;;;;;;16.98;41.68066;940.7037;;;;
2023/01/02 11:28:36;;;;;;;5.1;1.5;;;;;;;17.14;41.38281;940.7111;;;;
2023/01/02 11:31:01;;;;;;;5.7;1.8;;;;;;;17.24;41.53125;940.7151;;;;
2023/01/02 11:33:26;;;;;;;3.3;1.5;;;;;;;17.36;40.01172;940.6564;;;;
2023/01/02 11:35:55;;;;;;;4.5;1.9;;;;;;;17.32;39.25488;940.6005;;;;
2023/01/02 11:38:22;;;;;;;6.1;1.7;;;;;;;17.37;39.29395;940.6312;;;;
2023/01/02 11:40:51;;;;;;;3.6;1.2;;;;;;;17.34;38.66406;940.6292;;;;
2023/01/02 11:45:41;;;;;;;2.6;1.3;;;;;;;17.47;37.95703;940.5779;;;;
2023/01/02 11:48:10;;;;;;;4.7;1.9;;;;;;;17.63;38.95801;940.5463;;;;
2023/01/02 11:50:38;;;;;;;2.9;1.3;;;;;;;17.81;38.10254;940.5181;;;;
2023/01/02 11:53:03;;;;;;;8.7;1.8;;;;;;;17.99;38.62988;940.5302;;;;
2023/01/02 11:55:28;;;;;;;4.5;1.5;;;;;;;18.21;38.33594;940.4842;;;;
2023/01/02 11:57:53;;;;;;;5.4;1.6;;;;;;;18.36;38.61523;940.5305;;;;
2023/01/02 12:00:18;;;;;;;3.2;1.4;;;;;;;18.53;37.99121;940.5109;;;;
2023/01/02 12:02:48;;;;;;;2.4;1.1;;;;;;;18.37;36.08301;940.5036;;;;
2023/01/02 12:05:13;;;;;;;1.6;0.8;;;;;;;18.26;34.39941;940.4741;;;;
2023/01/02 12:07:38;;;;;;;1.6;0.7;;;;;;;18.24;34.44434;940.3632;;;;
2023/01/02 12:10:04;;;;;;;1.5;0.7;;;;;;;18.26;34.31738;940.3307;;;;
2023/01/02 12:12:29;;;;;;;3.1;1.2;;;;;;;18.34;33.35938;940.2648;;;;
2023/01/02 12:14:54;;;;;;;3.8;0.9;;;;;;;18.56;34.14355;940.3419;;;;
2023/01/02 12:17:23;;;;;;;2.5;0.6;;;;;;;18.58;33.54102;940.3624;;;;
2023/01/02 12:19:51;;;;;;;1.9;0.6;;;;;;;18.65;33.12793;940.4592;;;;
2023/01/02 12:22:20;;;;;;;1.1;0.3;;;;;;;18.58;32.09863;940.4238;;;;
2023/01/02 12:24:45;;;;;;;6;1.1;;;;;;;18.67;32.37305;940.3614;;;;
2023/01/02 12:27:10;;;;;;;9.4;1.7;;;;;;;18.82;32.74414;940.4256;;;;
2023/01/02 12:29:35;;;;;;;7;1.2;;;;;;;19.06;32.19141;940.4362;;;;
2023/01/02 12:33:10;;;;;;;3.6;1.1;;;;;;;19.07;32.29688;940.4537;;;;
2023/01/02 12:35:36;;;;;;;2.1;0.7;;;;;;;19.04;31.8291;940.459;;;;
2023/01/02 12:38:02;;;;;;;1.3;0.5;;;;;;;19.23;32.51855;940.4886;;;;
2023/01/02 12:40:27;;;;;;;2.2;0.7;;;;;;;19.36;31.875;940.5208;;;;
2023/01/02 12:42:53;;;;;;;2.1;0.8;;;;;;;19.37;31.72559;940.5261;;;;
2023/01/02 12:45:20;;;;;;;3.1;1.1;;;;;;;19.4;32.07715;940.5303;;;;
2023/01/02 12:47:45;;;;;;;0.5;0.5;;;;;;;19.36;34.82422;940.5239;;;;
2023/01/02 12:50:10;;;;;;;1.3;0.6;;;;;;;19.04;37.65039;940.5672;;;;
2023/01/02 12:52:35;;;;;;;0.8;0.6;;;;;;;18.75;38.16113;940.5859;;;;
2023/01/02 12:55:00;;;;;;;1.8;0.7;;;;;;;18.52;39.39648;940.6144;;;;
2023/01/02 12:57:25;;;;;;;1;0.6;;;;;;;18.39;40.64063;940.6509;;;;
2023/01/02 12:59:50;;;;;;;1.7;0.6;;;;;;;18.35;39.00879;940.6178;;;;
2023/01/02 13:02:15;;;;;;;0.8;0.7;;;;;;;18.21;39.1377;940.6309;;;;
2023/01/02 13:04:41;;;;;;;1;0.9;;;;;;;18.01;39.15332;940.6725;;;;
2023/01/02 13:07:06;;;;;;;1.5;0.7;;;;;;;17.77;39.48047;940.6017;;;;
2023/01/02 13:09:31;;;;;;;0.9;0.7;;;;;;;17.46;40.8916;940.6191;;;;
2023/01/02 13:11:59;;;;;;;0.8;0.7;;;;;;;17.27;40.05078;940.6905;;;;
2023/01/02 13:14:29;;;;;;;1.7;0.7;;;;;;;17.4;40.55957;940.6334;;;;
2023/01/02 13:16:57;;;;;;;0.9;0.8;;;;;;;17.41;40.52734;940.5744;;;;
2023/01/02 13:19:25;;;;;;;1.2;0.8;;;;;;;17.26;41.30176;940.7598;;;;
2023/01/02 13:21:53;;;;;;;1;0.9;;;;;;;17.24;40.26758;940.7576;;;;
2023/01/02 13:24:18;;;;;;;1;0.9;;;;;;;17;41.50879;940.8;;;;
2023/01/02 13:26:47;;;;;;;0.6;0.6;;;;;;;17;41.46289;940.8605;;;;
2023/01/02 13:29:30;;;;;;;1.5;0.7;;;;;;;16.98;41.55371;940.9041;;;;
2023/01/02 13:31:58;;;;;;;1.8;0.9;;;;;;;16.4;43.36133;940.9553;;;;
2023/01/02 13:34:46;;;;;;;2.4;0.8;;;;;;;16.63;42.99023;941.0212;;;;
2023/01/02 13:37:21;;;;;;;1.4;1.1;;;;;;;16.81;42.80078;941.0407;;;;
2023/01/02 13:39:50;;;;;;;1.1;1;;;;;;;16.71;42.66406;941.0505;;;;
2023/01/02 13:44:42;;;;;;;1.4;0.9;;;;;;;16.57;43.7373;941.0706;;;;
2023/01/02 13:47:07;;;;;;;2.1;1;;;;;;;16.56;43.64453;941.123;;;;
2023/01/02 13:49:32;;;;;;;1.3;1.1;;;;;;;16.47;43.40332;941.2034;;;;
2023/01/02 13:51:58;;;;;;;3.3;0.9;;;;;;;16.43;43.12207;941.1708;;;;
2023/01/02 13:54:23;;;;;;;2.3;0.9;;;;;;;16.21;44.10645;941.2972;;;;
2023/01/02 13:56:49;;;;;;;2.1;1.1;;;;;;;16.17;43.45313;941.3161;;;;
2023/01/02 13:59:17;;;;;;;1.4;1.1;;;;;;;15.97;45.00781;941.366;;;;
2023/01/02 14:01:42;;;;;;;1.4;1.1;;;;;;;15.89;45.18359;941.3786;;;;
2023/01/02 14:04:07;;;;;;;1.1;0.8;;;;;;;15.87;45.50586;941.3923;;;;
2023/01/02 14:06:33;;;;;;;1.6;1.1;;;;;;;15.66;45.5752;941.4254;;;;
2023/01/02 14:08:58;;;;;;;1.8;1.2;;;;;;;15.34;45.83203;941.4821;;;;
2023/01/02 14:11:23;;;;;;;1.8;1.1;;;;;;;15.34;46.25781;941.5086;;;;
2023/01/02 14:13:48;;;;;;;1.2;1.1;;;;;;;15.24;46.16797;941.4367;;;;
2023/01/02 14:16:13;;;;;;;1.7;1.2;;;;;;;15.1;46.99414;941.5636;;;;
2023/01/02 14:18:42;;;;;;;3.1;1.1;;;;;;;14.96;47.19922;941.6013;;;;
2023/01/02 14:21:11;;;;;;;1.8;1.1;;;;;;;14.66;47.68457;941.6303;;;;
2023/01/02 14:23:36;;;;;;;1.2;1.1;;;;;;;14.82;47.90918;941.6866;;;;
2023/01/02 14:26:05;;;;;;;2.7;1.5;;;;;;;14.85;47.55664;941.7355;;;;
2023/01/02 14:28:33;;;;;;;1.3;1.2;;;;;;;14.84;47.16309;941.7539;;;;
2023/01/02 14:30:58;;;;;;;2;0.9;;;;;;;14.88;47.30469;941.8444;;;;
2023/01/02 14:33:27;;;;;;;1.6;1.1;;;;;;;14.88;46.83301;941.8099;;;;
2023/01/02 14:35:53;;;;;;;2.1;1.4;;;;;;;14.85;46.81738;941.8244;;;;
2023/01/02 14:38:20;;;;;;;2.1;0.8;;;;;;;14.85;47.29102;941.8685;;;;
2023/01/02 14:40:45;;;;;;;1.9;1.3;;;;;;;14.74;48.11914;941.9348;;;;
2023/01/02 14:45:39;;;;;;;1.7;1.1;;;;;;;14.53;49.36523;942.0444;;;;
2023/01/02 14:48:07;;;;;;;1.4;1.1;;;;;;;14.44;49.80273;942.066;;;;
2023/01/02 14:50:32;;;;;;;1.9;1.4;;;;;;;14.38;49.41699;942.1495;;;;
2023/01/02 14:52:58;;;;;;;1.5;1.2;;;;;;;14.25;49.79395;942.1974;;;;
2023/01/02 14:55:23;;;;;;;2.8;1.2;;;;;;;14.24;50.36816;942.2037;;;;
2023/01/02 14:57:49;;;;;;;1.6;1.2;;;;;;;14.24;49.81543;942.235;;;;
2023/01/02 15:00:19;;;;;;;1.2;1.1;;;;;;;14.18;49.91211;942.2282;;;;
2023/01/02 15:02:49;;;;;;;2;1.4;;;;;;;14.15;49.80566;942.2914;;;;
2023/01/02 15:05:15;;;;;;;3.2;1.4;;;;;;;14.07;49.90039;942.3321;;;;